createdAt,value
2022-10-01T00:01:17.794Z,97428.28
2022-10-01T00:03:45.036Z,97432.81
2022-10-01T00:06:20.449Z,97431.94
2022-10-01T00:08:49.370Z,97435.69
2022-10-01T00:11:19.224Z,97439.06
2022-10-01T00:13:46.354Z,97435.91
2022-10-01T00:16:16.410Z,97438.91
2022-10-01T00:18:45.647Z,97433.19
2022-10-01T00:21:15.045Z,97441.50
2022-10-01T00:23:42.704Z,97433.03
2022-10-01T00:26:17.777Z,97434.88
2022-10-01T00:28:46.286Z,97440.53
2022-10-01T00:31:14.937Z,97446.91
2022-10-01T00:33:42.656Z,97446.59
2022-10-01T00:36:10.681Z,97447.06
2022-10-01T00:38:38.525Z,97436.78
2022-10-01T00:41:05.453Z,97435.41
2022-10-01T00:43:35.231Z,97429.28
2022-10-01T00:46:25.504Z,97423.16
2022-10-01T00:49:00.205Z,97430.06
2022-10-01T00:51:33.323Z,97432.59
2022-10-01T00:54:08.549Z,97436.34
2022-10-01T00:56:36.074Z,97438.97
2022-10-01T00:59:03.228Z,97437.78
2022-10-01T01:01:30.257Z,97442.34
2022-10-01T01:03:57.872Z,97444.03
2022-10-01T01:06:24.512Z,97439.41
2022-10-01T01:08:55.314Z,97448.66
2022-10-01T01:11:34.379Z,97436.75
2022-10-01T01:14:28.333Z,97436.34
2022-10-01T01:17:01.497Z,97425.78
2022-10-01T01:19:38.414Z,97421.31
2022-10-01T01:22:07.706Z,97407.47
2022-10-01T01:24:44.154Z,97412.56
2022-10-01T01:27:51.379Z,97402.06
2022-10-01T01:30:19.323Z,97402.06
2022-10-01T01:32:55.515Z,97405.94
2022-10-01T01:35:27.488Z,97407.84
2022-10-01T01:38:02.195Z,97409.09
2022-10-01T01:40:32.025Z,97414.47
2022-10-01T01:43:00.652Z,97404.19
2022-10-01T01:45:30.812Z,97402.06
2022-10-01T01:48:02.332Z,97405.34
2022-10-01T01:50:34.510Z,97410.28
2022-10-01T01:53:02.214Z,97411.06
2022-10-01T01:55:31.361Z,97416.88
2022-10-01T01:57:59.037Z,97412.69
2022-10-01T02:00:25.751Z,97407.94
2022-10-01T02:02:54.261Z,97407.22
2022-10-01T02:05:25.826Z,97399.94
2022-10-01T02:08:15.010Z,97403.53
2022-10-01T02:10:50.530Z,97397.06
2022-10-01T02:13:30.122Z,97396.34
2022-10-01T02:16:09.764Z,97380.94
2022-10-01T02:19:11.046Z,97370.16
2022-10-01T02:21:46.820Z,97373.44
2022-10-01T02:24:36.518Z,97367.22
2022-10-01T02:27:10.845Z,97371.88
2022-10-01T02:29:39.783Z,97377.94
2022-10-01T02:32:08.595Z,97380.91
2022-10-01T02:34:35.872Z,97385.97
2022-10-01T02:37:05.306Z,97389.16
2022-10-01T02:39:34.706Z,97386.72
2022-10-01T02:42:04.054Z,97387.31
2022-10-01T02:44:38.680Z,97392.22
2022-10-01T02:47:08.182Z,97385.41
2022-10-01T02:49:36.985Z,97384.88
2022-10-01T02:52:09.896Z,97405.91
2022-10-01T02:54:47.826Z,97408.41
2022-10-01T02:57:29.654Z,97413.09
2022-10-01T03:00:01.556Z,97399.66
2022-10-01T03:02:31.656Z,97401.41
2022-10-01T03:04:59.380Z,97394.91
2022-10-01T03:07:27.760Z,97404.44
2022-10-01T03:09:54.730Z,97392.50
2022-10-01T03:12:22.565Z,97387.00
2022-10-01T03:14:49.835Z,97394.00
2022-10-01T03:17:16.998Z,97389.31
2022-10-01T03:19:43.636Z,97401.47
2022-10-01T03:22:13.090Z,97389.03
2022-10-01T03:24:39.852Z,97393.13
2022-10-01T03:27:06.984Z,97387.75
2022-10-01T03:29:33.739Z,97402.44
2022-10-01T03:32:00.600Z,97399.72
2022-10-01T03:34:27.331Z,97400.00
2022-10-01T03:36:54.011Z,97401.63
2022-10-01T03:39:20.790Z,97395.38
2022-10-01T03:41:47.369Z,97390.25
2022-10-01T03:44:14.053Z,97397.13
2022-10-01T03:46:40.797Z,97392.03
2022-10-01T03:49:07.562Z,97395.06
2022-10-01T03:51:36.362Z,97391.00
2022-10-01T03:54:05.248Z,97389.41
2022-10-01T03:56:31.877Z,97397.00
2022-10-01T03:58:58.492Z,97394.63
2022-10-01T04:01:26.420Z,97388.94
2022-10-01T04:03:53.241Z,97384.06
2022-10-01T04:06:20.303Z,97395.84
2022-10-01T04:08:47.327Z,97399.06
2022-10-01T04:11:14.427Z,97409.69
2022-10-01T04:13:41.039Z,97424.56
2022-10-01T04:16:08.217Z,97424.81
2022-10-01T04:18:35.196Z,97429.44
2022-10-01T04:21:02.621Z,97426.81
2022-10-01T04:23:29.390Z,97432.88
2022-10-01T04:25:59.679Z,97444.31
2022-10-01T04:28:26.383Z,97436.19
2022-10-01T04:31:13.380Z,97448.34
2022-10-01T04:33:40.140Z,97449.69
2022-10-01T04:36:07.038Z,97453.47
2022-10-01T04:38:34.758Z,97447.50
2022-10-01T04:41:01.344Z,97453.19
2022-10-01T04:43:28.062Z,97445.53
2022-10-01T04:45:54.698Z,97447.66
2022-10-01T04:48:21.656Z,97447.31
2022-10-01T04:50:48.288Z,97446.75
2022-10-01T04:53:15.000Z,97430.47
2022-10-01T04:55:42.419Z,97431.03
2022-10-01T04:58:09.516Z,97433.47
2022-10-01T05:00:36.525Z,97436.94
2022-10-01T05:03:03.110Z,97435.78
2022-10-01T05:05:33.008Z,97434.34
2022-10-01T05:07:59.656Z,97432.31
2022-10-01T05:10:26.608Z,97435.53
2022-10-01T05:12:53.526Z,97437.63
2022-10-01T05:15:20.573Z,97442.91
2022-10-01T05:17:47.929Z,97441.19
2022-10-01T05:20:20.744Z,97445.94
2022-10-01T05:22:49.481Z,97437.94
2022-10-01T05:25:17.494Z,97451.97
2022-10-01T05:27:44.319Z,97453.22
2022-10-01T05:30:12.867Z,97453.66
2022-10-01T05:32:40.489Z,97461.16
2022-10-01T05:35:08.510Z,97453.97
2022-10-01T05:37:36.449Z,97464.19
2022-10-01T05:40:03.989Z,97470.28
2022-10-01T05:42:30.537Z,97466.59
2022-10-01T05:44:57.733Z,97464.59
2022-10-01T05:47:24.337Z,97463.94
2022-10-01T05:49:51.182Z,97463.25
2022-10-01T05:52:17.848Z,97464.69
2022-10-01T05:54:44.507Z,97477.50
2022-10-01T05:57:11.463Z,97477.03
2022-10-01T05:59:38.033Z,97470.50
2022-10-01T06:02:04.865Z,97468.06
2022-10-01T06:04:31.875Z,97474.63
2022-10-01T06:06:58.997Z,97479.91
2022-10-01T06:09:25.641Z,97478.28
2022-10-01T06:11:52.340Z,97485.63
2022-10-01T06:14:19.009Z,97478.56
2022-10-01T06:16:47.273Z,97472.25
2022-10-01T06:19:14.030Z,97472.53
2022-10-01T06:21:40.882Z,97472.19
2022-10-01T06:24:07.580Z,97466.97
2022-10-01T06:26:34.273Z,97468.84
2022-10-01T06:29:01.383Z,97480.03
2022-10-01T06:31:29.080Z,97477.53
2022-10-01T06:33:55.848Z,97480.00
2022-10-01T06:36:24.273Z,97470.94
2022-10-01T06:38:50.987Z,97464.41
2022-10-01T06:41:18.644Z,97469.91
2022-10-01T06:43:45.317Z,97462.25
2022-10-01T06:46:12.006Z,97466.28
2022-10-01T06:48:38.957Z,97462.94
2022-10-01T06:51:05.937Z,97454.47
2022-10-01T06:53:32.888Z,97452.56
2022-10-01T06:56:07.798Z,97450.84
2022-10-01T06:58:35.065Z,97449.56
2022-10-01T07:01:03.882Z,97448.75
2022-10-01T07:03:31.353Z,97442.00
2022-10-01T07:06:05.727Z,97432.03
2022-10-01T07:08:33.403Z,97439.22
2022-10-01T07:11:02.822Z,97436.53
2022-10-01T07:13:29.973Z,97433.91
2022-10-01T07:15:56.943Z,97437.91
2022-10-01T07:18:24.110Z,97438.69
2022-10-01T07:20:50.739Z,97431.09
2022-10-01T07:23:17.751Z,97429.75
2022-10-01T07:25:45.059Z,97437.09
2022-10-01T07:28:19.088Z,97430.72
2022-10-01T07:30:47.599Z,97442.28
2022-10-01T07:33:18.276Z,97434.16
2022-10-01T07:35:47.994Z,97439.91
2022-10-01T07:38:14.899Z,97436.63
2022-10-01T07:40:41.967Z,97430.94
2022-10-01T07:43:09.195Z,97440.69
2022-10-01T07:45:35.849Z,97437.91
2022-10-01T07:48:04.018Z,97439.56
2022-10-01T07:50:30.858Z,97436.09
2022-10-01T07:52:59.045Z,97435.94
2022-10-01T07:55:28.604Z,97429.00
2022-10-01T07:57:57.671Z,97430.31
2022-10-01T08:00:26.018Z,97437.75
2022-10-01T08:02:54.332Z,97422.78
2022-10-01T08:05:23.332Z,97415.69
2022-10-01T08:07:50.535Z,97408.28
2022-10-01T08:10:19.868Z,97407.16
2022-10-01T08:12:46.710Z,97411.94
2022-10-01T08:15:16.062Z,97405.28
2022-10-01T08:17:43.657Z,97405.38
2022-10-01T08:20:12.186Z,97401.88
2022-10-01T08:22:42.111Z,97404.25
2022-10-01T08:25:09.969Z,97394.94
2022-10-01T08:27:37.024Z,97394.50
2022-10-01T08:30:04.299Z,97390.13
2022-10-01T08:32:31.287Z,97394.75
2022-10-01T08:34:59.086Z,97392.72
2022-10-01T08:37:27.333Z,97381.88
2022-10-01T08:39:55.301Z,97386.97
2022-10-01T08:43:03.353Z,97383.88
2022-10-01T08:45:40.346Z,97382.75
2022-10-01T08:48:38.741Z,97393.59
2022-10-01T08:51:15.962Z,97376.66
2022-10-01T08:53:48.389Z,97381.75
2022-10-01T08:56:39.966Z,97381.25
2022-10-01T08:59:37.854Z,97375.28
2022-10-01T09:02:22.439Z,97371.69
2022-10-01T09:04:55.081Z,97370.81
2022-10-01T09:07:29.730Z,97366.72
2022-10-01T09:10:04.531Z,97365.31
2022-10-01T09:12:50.237Z,97355.16
2022-10-01T09:15:31.720Z,97353.75
2022-10-01T09:18:21.983Z,97354.78
2022-10-01T09:20:55.242Z,97347.09
2022-10-01T09:23:30.145Z,97342.28
2022-10-01T09:25:59.370Z,97340.72
2022-10-01T09:28:35.142Z,97340.81
2022-10-01T09:31:24.976Z,97343.34
2022-10-01T09:33:58.139Z,97337.03
2022-10-01T09:36:52.319Z,97333.97
2022-10-01T09:39:32.258Z,97319.53
2022-10-01T09:42:00.022Z,97312.13
2022-10-01T09:44:31.695Z,97307.47
2022-10-01T09:46:58.501Z,97324.97
2022-10-01T09:49:34.238Z,97309.19
2022-10-01T09:52:28.315Z,97302.88
2022-10-01T09:55:39.032Z,97295.09
2022-10-01T09:58:13.932Z,97287.66
2022-10-01T10:00:41.940Z,97281.78
2022-10-01T10:03:08.992Z,97277.13
2022-10-01T10:05:48.233Z,97273.19
2022-10-01T10:08:14.994Z,97270.88
2022-10-01T10:10:58.382Z,97267.31
2022-10-01T10:13:31.932Z,97268.56
2022-10-01T10:16:00.685Z,97268.19
2022-10-01T10:18:36.337Z,97263.03
2022-10-01T10:21:08.235Z,97255.13
2022-10-01T10:23:34.983Z,97266.28
2022-10-01T10:26:04.939Z,97265.16
2022-10-01T10:28:46.000Z,97259.78
2022-10-01T10:31:25.339Z,97265.03
2022-10-01T10:33:58.490Z,97257.97
2022-10-01T10:36:32.744Z,97249.31
2022-10-01T10:39:00.519Z,97245.75
2022-10-01T10:41:29.615Z,97240.59
2022-10-01T10:44:01.574Z,97235.81
2022-10-01T10:46:34.299Z,97237.81
2022-10-01T10:49:10.711Z,97230.31
2022-10-01T10:51:56.462Z,97223.63
2022-10-01T10:54:37.747Z,97231.19
2022-10-01T10:57:23.712Z,97231.56
2022-10-01T10:59:59.663Z,97224.44
2022-10-01T11:02:32.035Z,97213.34
2022-10-01T11:05:20.584Z,97199.47
2022-10-01T11:07:48.793Z,97203.06
2022-10-01T11:10:52.855Z,97199.53
2022-10-01T11:13:34.208Z,97187.22
2022-10-01T11:16:30.381Z,97183.25
2022-10-01T11:19:15.490Z,97185.22
2022-10-01T11:21:48.660Z,97175.69
2022-10-01T11:24:38.922Z,97185.53
2022-10-01T11:27:36.453Z,97184.28
2022-10-01T11:30:21.166Z,97183.09
2022-10-01T11:33:03.574Z,97175.53
2022-10-01T11:35:37.271Z,97169.63
2022-10-01T11:38:42.081Z,97172.84
2022-10-01T11:41:16.743Z,97165.34
2022-10-01T11:43:51.496Z,97163.78
2022-10-01T11:46:41.488Z,97154.25
2022-10-01T11:49:32.788Z,97148.72
2022-10-01T11:52:09.355Z,97147.53
2022-10-01T11:54:42.240Z,97144.72
2022-10-01T11:57:34.177Z,97133.22
2022-10-01T12:00:13.922Z,97129.22
2022-10-01T12:03:00.543Z,97124.06
2022-10-01T12:05:31.518Z,97121.25
2022-10-01T12:08:11.829Z,97114.84
2022-10-01T12:10:45.167Z,97115.16
2022-10-01T12:13:33.289Z,97101.69
2022-10-01T12:17:04.713Z,97085.84
2022-10-01T12:19:38.970Z,97085.41
2022-10-01T12:22:20.311Z,97080.28
2022-10-01T12:24:50.682Z,97078.28
2022-10-01T12:27:26.531Z,97075.53
2022-10-01T12:30:02.117Z,97073.16
2022-10-01T12:32:37.655Z,97058.53
2022-10-01T12:35:07.125Z,97055.78
2022-10-01T12:37:55.852Z,97046.31
2022-10-01T12:41:07.163Z,97036.06
2022-10-01T12:43:43.779Z,97039.25
2022-10-01T12:46:35.092Z,97033.72
2022-10-01T12:49:24.258Z,97030.19
2022-10-01T12:52:06.070Z,97033.41
2022-10-01T12:54:51.005Z,97024.31
2022-10-01T12:57:53.007Z,97025.47
2022-10-01T13:00:22.855Z,97023.47
2022-10-01T13:03:18.373Z,97008.03
2022-10-01T13:06:14.617Z,97012.00
2022-10-01T13:09:23.021Z,97006.84
2022-10-01T13:11:55.719Z,97004.88
2022-10-01T13:14:23.116Z,96998.13
2022-10-01T13:17:11.706Z,96994.97
2022-10-01T13:19:48.231Z,96995.75
2022-10-01T13:22:19.552Z,96985.88
2022-10-01T13:25:10.265Z,96966.84
2022-10-01T13:27:42.531Z,96968.00
2022-10-01T13:30:25.058Z,96963.25
2022-10-01T13:33:01.183Z,96952.56
2022-10-01T13:35:35.733Z,96957.72
2022-10-01T13:38:17.580Z,96952.16
2022-10-01T13:40:44.890Z,96952.53
2022-10-01T13:43:21.707Z,96944.97
2022-10-01T13:45:51.527Z,96946.94
2022-10-01T13:48:32.607Z,96942.16
2022-10-01T13:51:11.690Z,96938.53
2022-10-01T13:53:41.910Z,96933.78
2022-10-01T13:56:14.723Z,96927.81
2022-10-01T13:58:43.802Z,96918.28
2022-10-01T14:01:21.401Z,96917.09
2022-10-01T14:04:06.068Z,96911.47
2022-10-01T14:06:42.736Z,96907.91
2022-10-01T14:09:26.309Z,96904.34
2022-10-01T14:12:35.605Z,96910.13
2022-10-01T14:15:47.724Z,96905.63
2022-10-01T14:18:22.352Z,96911.94
2022-10-01T14:21:18.084Z,96915.09
2022-10-01T14:24:12.073Z,96915.03
2022-10-01T14:27:17.180Z,96908.16
2022-10-01T14:30:16.258Z,96906.94
2022-10-01T14:33:10.702Z,96894.94
2022-10-01T14:35:48.428Z,96898.28
2022-10-01T14:38:20.643Z,96898.94
2022-10-01T14:40:49.167Z,96893.34
2022-10-01T14:43:18.671Z,96889.34
2022-10-01T14:46:03.110Z,96879.44
2022-10-01T14:48:31.942Z,96869.88
2022-10-01T14:51:02.156Z,96873.00
2022-10-01T14:53:32.185Z,96864.25
2022-10-01T14:56:20.389Z,96853.00
2022-10-01T14:58:55.324Z,96855.31
2022-10-01T15:01:23.846Z,96850.91
2022-10-01T15:03:51.595Z,96845.31
2022-10-01T15:06:21.458Z,96845.25
2022-10-01T15:08:53.561Z,96844.50
2022-10-01T15:11:24.299Z,96852.00
2022-10-01T15:13:53.231Z,96846.47
2022-10-01T15:16:25.348Z,96847.22
2022-10-01T15:18:59.343Z,96832.94
2022-10-01T15:21:29.115Z,96827.19
2022-10-01T15:23:57.990Z,96823.81
2022-10-01T15:26:31.954Z,96818.97
2022-10-01T15:29:12.003Z,96812.81
2022-10-01T15:31:39.917Z,96798.88
2022-10-01T15:34:11.321Z,96794.38
2022-10-01T15:36:39.050Z,96783.16
2022-10-01T15:39:16.024Z,96776.19
2022-10-01T15:41:42.707Z,96773.66
2022-10-01T15:44:49.413Z,96785.47
2022-10-01T15:47:37.467Z,96772.88
2022-10-01T15:50:10.212Z,96767.63
2022-10-01T15:52:55.566Z,96770.13
2022-10-01T15:55:49.569Z,96762.59
2022-10-01T15:58:20.919Z,96758.94
2022-10-01T16:00:48.831Z,96752.41
2022-10-01T16:03:21.453Z,96745.97
2022-10-01T16:05:48.720Z,96754.44
2022-10-01T16:08:21.942Z,96749.22
2022-10-01T16:11:09.777Z,96750.38
2022-10-01T16:13:39.213Z,96733.81
2022-10-01T16:16:26.369Z,96726.38
2022-10-01T16:19:19.057Z,96722.34
2022-10-01T16:22:17.531Z,96706.28
2022-10-01T16:24:47.353Z,96703.84
2022-10-01T16:27:19.870Z,96695.34
2022-10-01T16:30:01.229Z,96695.13
2022-10-01T16:32:31.431Z,96700.97
2022-10-01T16:35:17.711Z,96698.16
2022-10-01T16:37:45.802Z,96704.00
2022-10-01T16:40:16.182Z,96696.13
2022-10-01T16:42:44.373Z,96695.59
2022-10-01T16:45:19.836Z,96684.38
2022-10-01T16:47:46.814Z,96682.72
2022-10-01T16:50:16.494Z,96681.84
2022-10-01T16:52:43.616Z,96679.47
2022-10-01T16:55:22.668Z,96666.69
2022-10-01T16:57:50.301Z,96667.41
2022-10-01T17:00:19.591Z,96668.94
2022-10-01T17:02:47.159Z,96660.16
2022-10-01T17:05:31.761Z,96658.66
2022-10-01T17:08:00.922Z,96650.16
2022-10-01T17:10:31.084Z,96648.28
2022-10-01T17:12:59.475Z,96644.41
2022-10-01T17:15:28.327Z,96645.59
2022-10-01T17:17:56.909Z,96632.31
2022-10-01T17:20:26.418Z,96626.69
2022-10-01T17:22:52.988Z,96635.63
2022-10-01T17:25:25.322Z,96636.78
2022-10-01T17:27:52.377Z,96635.53
2022-10-01T17:30:19.050Z,96635.91
2022-10-01T17:32:46.957Z,96629.03
2022-10-01T17:35:15.371Z,96632.41
2022-10-01T17:37:42.795Z,96623.66
2022-10-01T17:40:11.045Z,96626.06
2022-10-01T17:42:37.799Z,96626.84
2022-10-01T17:45:07.625Z,96620.19
2022-10-01T17:47:34.342Z,96622.59
2022-10-01T17:50:02.962Z,96620.56
2022-10-01T17:52:29.966Z,96608.97
2022-10-01T17:54:56.680Z,96605.34
2022-10-01T17:57:23.383Z,96598.63
2022-10-01T17:59:51.702Z,96595.69
2022-10-01T18:02:40.432Z,96594.03
2022-10-01T18:05:09.531Z,96595.47
2022-10-01T18:07:39.200Z,96591.09
2022-10-01T18:10:07.654Z,96589.97
2022-10-01T18:12:35.001Z,96592.78
2022-10-01T18:15:02.068Z,96595.59
2022-10-01T18:17:29.399Z,96588.53
2022-10-01T18:19:57.235Z,96585.19
2022-10-01T18:22:24.239Z,96580.94
2022-10-01T18:24:50.847Z,96583.34
2022-10-01T18:27:17.670Z,96593.38
2022-10-01T18:29:44.356Z,96623.19
2022-10-01T18:32:19.425Z,96647.88
2022-10-01T18:34:59.148Z,96658.28
2022-10-01T18:37:40.291Z,96666.28
2022-10-01T18:40:28.977Z,96662.88
2022-10-01T18:43:13.194Z,96679.78
2022-10-01T18:46:01.105Z,96685.19
2022-10-01T18:48:33.662Z,96681.91
2022-10-01T18:51:35.342Z,96709.03
2022-10-01T18:55:00.245Z,96714.16
2022-10-01T18:57:58.461Z,96726.44
2022-10-01T19:00:31.899Z,96727.53
2022-10-01T19:03:32.912Z,96733.66
2022-10-01T19:06:23.951Z,96741.16
2022-10-01T19:09:24.351Z,96753.72
2022-10-01T19:12:00.383Z,96761.47
2022-10-01T19:14:45.111Z,96762.44
2022-10-01T19:17:24.769Z,96772.44
2022-10-01T19:20:28.744Z,96755.94
2022-10-01T19:23:19.936Z,96738.59
2022-10-01T19:26:01.859Z,96732.88
2022-10-01T19:28:42.940Z,96724.44
2022-10-01T19:31:17.587Z,96726.81
2022-10-01T19:33:52.500Z,96731.81
2022-10-01T19:36:34.366Z,96725.09
2022-10-01T19:39:05.369Z,96716.44
2022-10-01T19:41:49.116Z,96721.09
2022-10-01T19:44:24.219Z,96719.16
2022-10-01T19:49:38.602Z,96708.72
2022-10-01T19:52:18.367Z,96703.25
2022-10-01T19:54:54.757Z,96706.78
2022-10-01T19:57:34.809Z,96698.59
2022-10-01T20:00:10.157Z,96699.03
2022-10-01T20:03:00.546Z,96691.78
2022-10-01T20:05:32.176Z,96691.72
2022-10-01T20:08:25.007Z,96698.88
2022-10-01T20:10:54.960Z,96685.47
2022-10-01T20:13:40.170Z,96689.16
2022-10-01T20:16:16.578Z,96694.09
2022-10-01T20:18:49.292Z,96706.41
2022-10-01T20:21:55.507Z,96689.66
2022-10-01T20:24:42.658Z,96687.84
2022-10-01T20:27:37.399Z,96668.84
2022-10-01T20:30:06.776Z,96663.06
2022-10-01T20:32:46.759Z,96655.66
2022-10-01T20:35:19.190Z,96648.56
2022-10-01T20:38:00.379Z,96651.88
2022-10-01T20:40:36.096Z,96660.16
2022-10-01T20:43:21.879Z,96658.22
2022-10-01T20:45:53.503Z,96671.34
2022-10-01T20:48:39.820Z,96683.97
2022-10-01T20:51:12.363Z,96677.06
2022-10-01T20:53:45.280Z,96679.91
2022-10-01T20:56:32.490Z,96694.59
2022-10-01T20:59:05.151Z,96689.38
2022-10-01T21:01:41.815Z,96701.91
2022-10-01T21:04:21.810Z,96716.06
2022-10-01T21:06:51.866Z,96701.78
2022-10-01T21:09:28.006Z,96702.91
2022-10-01T21:12:03.104Z,96706.19
2022-10-01T21:14:38.618Z,96705.28
2022-10-01T21:17:08.993Z,96720.88
2022-10-01T21:19:57.154Z,96718.69
2022-10-01T21:22:56.510Z,96722.06
2022-10-01T21:25:38.180Z,96721.41
2022-10-01T21:28:26.853Z,96721.88
2022-10-01T21:31:18.070Z,96732.88
2022-10-01T21:34:00.994Z,96728.34
2022-10-01T21:36:48.017Z,96735.88
2022-10-01T21:39:30.602Z,96736.13
2022-10-01T21:42:15.899Z,96733.53
2022-10-01T21:44:51.345Z,96734.38
2022-10-01T21:47:24.118Z,96722.31
2022-10-01T21:49:57.185Z,96714.75
2022-10-01T21:52:31.580Z,96712.31
2022-10-01T21:55:25.279Z,96704.69
2022-10-01T21:58:13.961Z,96697.66
2022-10-01T22:00:42.799Z,96696.34
2022-10-01T22:03:12.308Z,96703.50
2022-10-01T22:05:57.765Z,96704.44
2022-10-01T22:08:41.789Z,96696.88
2022-10-01T22:11:15.669Z,96697.84
2022-10-01T22:13:53.530Z,96705.63
2022-10-01T22:16:22.530Z,96696.34
2022-10-01T22:19:06.464Z,96691.66
2022-10-01T22:21:59.651Z,96690.88
2022-10-01T22:24:39.737Z,96675.59
2022-10-01T22:27:22.639Z,96679.59
2022-10-01T22:30:02.898Z,96670.63
2022-10-01T22:32:40.403Z,96669.69
2022-10-01T22:35:15.845Z,96692.72
2022-10-01T22:38:13.862Z,96688.06
2022-10-01T22:40:51.643Z,96676.16
2022-10-01T22:43:18.814Z,96675.16
2022-10-01T22:46:09.858Z,96674.50
2022-10-01T22:48:57.284Z,96673.97
2022-10-01T22:51:42.434Z,96681.28
2022-10-01T22:54:21.881Z,96668.88
2022-10-01T22:57:05.334Z,96658.28
2022-10-01T23:00:09.696Z,96655.44
2022-10-01T23:02:39.708Z,96650.63
2022-10-01T23:05:30.101Z,96655.16
2022-10-01T23:08:09.698Z,96656.75
2022-10-01T23:11:05.918Z,96654.97
2022-10-01T23:13:44.836Z,96657.81
2022-10-01T23:16:19.814Z,96652.03
2022-10-01T23:18:58.993Z,96644.25
2022-10-01T23:21:35.025Z,96652.00
2022-10-01T23:24:14.646Z,96655.84
2022-10-01T23:27:27.857Z,96656.84
2022-10-01T23:30:10.474Z,96659.69
2022-10-01T23:33:12.183Z,96663.09
2022-10-01T23:35:47.945Z,96661.72
2022-10-01T23:38:20.852Z,96667.84
2022-10-01T23:40:51.936Z,96663.03
2022-10-01T23:43:37.807Z,96658.72
2022-10-01T23:46:22.625Z,96649.53
2022-10-01T23:49:05.484Z,96658.78
2022-10-01T23:51:47.889Z,96656.97
2022-10-01T23:54:33.276Z,96647.31
2022-10-01T23:57:12.670Z,96641.53
2022-10-01T23:59:51.809Z,96630.03
